sensor_id;sensor_type;location;lat;lon;timestamp;P1;durP1;ratioP1;P2;durP2;ratioP2
18433;SDS011;9344;52.294;13.626;2022-07-25T00:00:54;2.60;;;1.20;;
18433;SDS011;9344;52.294;13.626;2022-07-25T00:03:20;2.22;;;1.27;;
18433;SDS011;9344;52.294;13.626;2022-07-25T00:05:47;2.55;;;1.33;;
18433;SDS011;9344;52.294;13.626;2022-07-25T00:08:13;1.50;;;1.05;;
18433;SDS011;9344;52.294;13.626;2022-07-25T00:10:40;1.70;;;1.02;;
18433;SDS011;9344;52.294;13.626;2022-07-25T00:13:06;1.58;;;0.98;;
18433;SDS011;9344;52.294;13.626;2022-07-25T00:15:33;1.45;;;1.20;;
18433;SDS011;9344;52.294;13.626;2022-07-25T00:18:01;2.55;;;1.33;;
18433;SDS011;9344;52.294;13.626;2022-07-25T00:20:27;2.17;;;1.27;;
18433;SDS011;9344;52.294;13.626;2022-07-25T00:22:54;2.35;;;1.20;;
18433;SDS011;9344;52.294;13.626;2022-07-25T00:25:20;2.63;;;1.23;;
18433;SDS011;9344;52.294;13.626;2022-07-25T00:27:47;1.77;;;1.30;;
18433;SDS011;9344;52.294;13.626;2022-07-25T00:30:13;1.98;;;1.10;;
18433;SDS011;9344;52.294;13.626;2022-07-25T00:32:40;1.77;;;1.05;;
18433;SDS011;9344;52.294;13.626;2022-07-25T00:35:08;2.15;;;1.00;;
18433;SDS011;9344;52.294;13.626;2022-07-25T00:37:34;2.13;;;1.48;;
18433;SDS011;9344;52.294;13.626;2022-07-25T00:40:01;1.67;;;1.23;;
18433;SDS011;9344;52.294;13.626;2022-07-25T00:42:28;2.00;;;1.23;;
18433;SDS011;9344;52.294;13.626;2022-07-25T00:44:55;2.40;;;1.40;;
18433;SDS011;9344;52.294;13.626;2022-07-25T00:47:21;4.40;;;1.50;;
18433;SDS011;9344;52.294;13.626;2022-07-25T00:49:48;2.13;;;1.25;;
18433;SDS011;9344;52.294;13.626;2022-07-25T00:52:16;2.78;;;1.30;;
18433;SDS011;9344;52.294;13.626;2022-07-25T00:54:42;3.13;;;1.02;;
18433;SDS011;9344;52.294;13.626;2022-07-25T00:57:09;2.65;;;1.38;;
18433;SDS011;9344;52.294;13.626;2022-07-25T00:59:35;1.58;;;1.00;;
18433;SDS011;9344;52.294;13.626;2022-07-25T01:02:02;2.53;;;1.35;;
18433;SDS011;9344;52.294;13.626;2022-07-25T01:04:29;1.70;;;1.20;;
18433;SDS011;9344;52.294;13.626;2022-07-25T01:06:55;2.40;;;1.20;;
18433;SDS011;9344;52.294;13.626;2022-07-25T01:09:23;2.03;;;1.23;;
18433;SDS011;9344;52.294;13.626;2022-07-25T01:11:50;2.28;;;1.20;;
18433;SDS011;9344;52.294;13.626;2022-07-25T01:14:17;2.95;;;1.40;;
18433;SDS011;9344;52.294;13.626;2022-07-25T01:16:43;1.52;;;1.10;;
18433;SDS011;9344;52.294;13.626;2022-07-25T01:19:10;1.67;;;1.20;;
18433;SDS011;9344;52.294;13.626;2022-07-25T01:21:38;2.20;;;1.17;;
18433;SDS011;9344;52.294;13.626;2022-07-25T01:24:06;2.85;;;1.15;;
18433;SDS011;9344;52.294;13.626;2022-07-25T01:26:34;2.65;;;1.40;;
18433;SDS011;9344;52.294;13.626;2022-07-25T01:29:00;3.10;;;1.20;;
18433;SDS011;9344;52.294;13.626;2022-07-25T01:31:27;1.92;;;1.20;;
18433;SDS011;9344;52.294;13.626;2022-07-25T01:33:53;4.05;;;1.33;;
18433;SDS011;9344;52.294;13.626;2022-07-25T01:36:20;1.85;;;1.08;;
18433;SDS011;9344;52.294;13.626;2022-07-25T01:38:48;2.33;;;1.30;;
18433;SDS011;9344;52.294;13.626;2022-07-25T01:41:14;2.08;;;1.17;;
18433;SDS011;9344;52.294;13.626;2022-07-25T01:43:41;2.10;;;1.25;;
18433;SDS011;9344;52.294;13.626;2022-07-25T01:46:07;2.97;;;1.30;;
18433;SDS011;9344;52.294;13.626;2022-07-25T01:48:34;2.00;;;1.27;;
18433;SDS011;9344;52.294;13.626;2022-07-25T01:51:00;1.55;;;1.17;;
18433;SDS011;9344;52.294;13.626;2022-07-25T01:53:27;2.28;;;1.30;;
18433;SDS011;9344;52.294;13.626;2022-07-25T01:55:56;2.45;;;1.35;;
18433;SDS011;9344;52.294;13.626;2022-07-25T01:58:24;2.53;;;1.60;;
18433;SDS011;9344;52.294;13.626;2022-07-25T02:00:50;2.08;;;1.10;;
18433;SDS011;9344;52.294;13.626;2022-07-25T02:03:17;1.90;;;1.10;;
18433;SDS011;9344;52.294;13.626;2022-07-25T02:05:56;2.33;;;1.13;;
18433;SDS011;9344;52.294;13.626;2022-07-25T02:08:23;2.28;;;1.20;;
18433;SDS011;9344;52.294;13.626;2022-07-25T02:10:50;4.15;;;1.20;;
18433;SDS011;9344;52.294;13.626;2022-07-25T02:13:18;1.70;;;1.30;;
18433;SDS011;9344;52.294;13.626;2022-07-25T02:15:45;2.20;;;1.27;;
18433;SDS011;9344;52.294;13.626;2022-07-25T02:18:11;2.42;;;1.35;;
18433;SDS011;9344;52.294;13.626;2022-07-25T02:20:38;2.30;;;1.48;;
18433;SDS011;9344;52.294;13.626;2022-07-25T02:23:04;2.88;;;1.30;;
18433;SDS011;9344;52.294;13.626;2022-07-25T02:25:31;1.95;;;1.27;;
18433;SDS011;9344;52.294;13.626;2022-07-25T02:27:58;1.77;;;1.20;;
18433;SDS011;9344;52.294;13.626;2022-07-25T02:30:27;2.35;;;1.30;;
18433;SDS011;9344;52.294;13.626;2022-07-25T02:32:53;1.42;;;1.10;;
18433;SDS011;9344;52.294;13.626;2022-07-25T02:35:20;2.28;;;1.40;;
18433;SDS011;9344;52.294;13.626;2022-07-25T02:37:47;1.77;;;1.20;;
18433;SDS011;9344;52.294;13.626;2022-07-25T02:40:13;2.03;;;1.20;;
18433;SDS011;9344;52.294;13.626;2022-07-25T02:42:40;2.05;;;1.20;;
18433;SDS011;9344;52.294;13.626;2022-07-25T02:45:06;1.60;;;1.20;;
18433;SDS011;9344;52.294;13.626;2022-07-25T02:47:35;2.20;;;1.30;;
18433;SDS011;9344;52.294;13.626;2022-07-25T02:50:01;1.63;;;1.15;;
18433;SDS011;9344;52.294;13.626;2022-07-25T02:52:28;1.73;;;1.25;;
18433;SDS011;9344;52.294;13.626;2022-07-25T02:54:55;1.02;;;0.93;;
18433;SDS011;9344;52.294;13.626;2022-07-25T02:57:21;2.40;;;1.27;;
18433;SDS011;9344;52.294;13.626;2022-07-25T02:59:48;2.15;;;1.10;;
18433;SDS011;9344;52.294;13.626;2022-07-25T03:02:14;2.67;;;1.38;;
18433;SDS011;9344;52.294;13.626;2022-07-25T03:04:42;1.48;;;1.05;;
18433;SDS011;9344;52.294;13.626;2022-07-25T03:07:09;1.65;;;1.20;;
18433;SDS011;9344;52.294;13.626;2022-07-25T03:09:35;2.88;;;1.13;;
18433;SDS011;9344;52.294;13.626;2022-07-25T03:12:02;2.15;;;1.30;;
18433;SDS011;9344;52.294;13.626;2022-07-25T03:14:29;1.83;;;1.00;;
18433;SDS011;9344;52.294;13.626;2022-07-25T03:16:56;3.10;;;1.42;;
18433;SDS011;9344;52.294;13.626;2022-07-25T03:19:23;3.17;;;1.13;;
18433;SDS011;9344;52.294;13.626;2022-07-25T03:21:50;1.70;;;1.17;;
18433;SDS011;9344;52.294;13.626;2022-07-25T03:24:17;3.85;;;1.30;;
18433;SDS011;9344;52.294;13.626;2022-07-25T03:26:43;2.20;;;1.35;;
18433;SDS011;9344;52.294;13.626;2022-07-25T03:29:10;1.92;;;1.13;;
18433;SDS011;9344;52.294;13.626;2022-07-25T03:31:37;1.70;;;1.30;;
18433;SDS011;9344;52.294;13.626;2022-07-25T03:34:03;2.15;;;1.20;;
18433;SDS011;9344;52.294;13.626;2022-07-25T03:36:30;1.42;;;0.93;;
18433;SDS011;9344;52.294;13.626;2022-07-25T03:38:58;2.10;;;1.30;;
18433;SDS011;9344;52.294;13.626;2022-07-25T03:41:24;2.20;;;1.10;;
18433;SDS011;9344;52.294;13.626;2022-07-25T03:43:51;2.95;;;1.20;;
18433;SDS011;9344;52.294;13.626;2022-07-25T03:46:17;3.97;;;1.15;;
18433;SDS011;9344;52.294;13.626;2022-07-25T03:48:44;1.92;;;1.13;;
18433;SDS011;9344;52.294;13.626;2022-07-25T03:51:10;1.95;;;1.20;;
18433;SDS011;9344;52.294;13.626;2022-07-25T03:53:37;1.92;;;1.15;;
18433;SDS011;9344;52.294;13.626;2022-07-25T03:56:19;2.95;;;1.00;;
18433;SDS011;9344;52.294;13.626;2022-07-25T03:58:45;2.13;;;1.23;;
18433;SDS011;9344;52.294;13.626;2022-07-25T04:01:12;2.30;;;1.20;;
18433;SDS011;9344;52.294;13.626;2022-07-25T04:03:38;2.08;;;1.23;;
18433;SDS011;9344;52.294;13.626;2022-07-25T04:06:05;1.70;;;1.02;;
18433;SDS011;9344;52.294;13.626;2022-07-25T04:08:31;1.60;;;1.10;;
18433;SDS011;9344;52.294;13.626;2022-07-25T04:10:58;1.63;;;1.23;;
18433;SDS011;9344;52.294;13.626;2022-07-25T04:13:26;1.27;;;1.05;;
18433;SDS011;9344;52.294;13.626;2022-07-25T04:15:52;2.40;;;1.40;;
18433;SDS011;9344;52.294;13.626;2022-07-25T04:18:19;2.15;;;1.20;;
18433;SDS011;9344;52.294;13.626;2022-07-25T04:20:45;1.42;;;0.98;;
18433;SDS011;9344;52.294;13.626;2022-07-25T04:23:12;2.22;;;1.20;;
18433;SDS011;9344;52.294;13.626;2022-07-25T04:25:38;2.30;;;1.35;;
18433;SDS011;9344;52.294;13.626;2022-07-25T04:28:05;2.83;;;1.30;;
18433;SDS011;9344;52.294;13.626;2022-07-25T04:30:33;1.20;;;0.93;;
18433;SDS011;9344;52.294;13.626;2022-07-25T04:32:59;3.97;;;1.02;;
18433;SDS011;9344;52.294;13.626;2022-07-25T04:35:26;1.83;;;1.20;;
18433;SDS011;9344;52.294;13.626;2022-07-25T04:37:52;1.73;;;1.20;;
18433;SDS011;9344;52.294;13.626;2022-07-25T04:40:19;3.35;;;1.30;;
18433;SDS011;9344;52.294;13.626;2022-07-25T04:42:46;1.60;;;1.08;;
18433;SDS011;9344;52.294;13.626;2022-07-25T04:45:12;2.25;;;1.30;;
18433;SDS011;9344;52.294;13.626;2022-07-25T04:47:40;3.45;;;1.38;;
18433;SDS011;9344;52.294;13.626;2022-07-25T04:50:07;1.65;;;1.10;;
18433;SDS011;9344;52.294;13.626;2022-07-25T04:52:34;1.45;;;0.90;;
18433;SDS011;9344;52.294;13.626;2022-07-25T04:55:01;1.55;;;1.00;;
18433;SDS011;9344;52.294;13.626;2022-07-25T04:57:28;1.75;;;1.10;;
18433;SDS011;9344;52.294;13.626;2022-07-25T04:59:54;1.92;;;1.02;;
18433;SDS011;9344;52.294;13.626;2022-07-25T05:02:22;1.70;;;1.10;;
18433;SDS011;9344;52.294;13.626;2022-07-25T05:04:50;1.20;;;1.00;;
18433;SDS011;9344;52.294;13.626;2022-07-25T05:07:17;2.45;;;1.00;;
18433;SDS011;9344;52.294;13.626;2022-07-25T05:09:44;1.10;;;0.90;;
18433;SDS011;9344;52.294;13.626;2022-07-25T05:12:11;2.78;;;1.10;;
18433;SDS011;9344;52.294;13.626;2022-07-25T05:14:38;2.92;;;1.10;;
18433;SDS011;9344;52.294;13.626;2022-07-25T05:17:04;1.73;;;1.05;;
18433;SDS011;9344;52.294;13.626;2022-07-25T05:19:31;1.77;;;1.08;;
18433;SDS011;9344;52.294;13.626;2022-07-25T05:22:00;1.55;;;1.10;;
18433;SDS011;9344;52.294;13.626;2022-07-25T05:24:27;1.50;;;1.00;;
18433;SDS011;9344;52.294;13.626;2022-07-25T05:26:53;3.03;;;1.10;;
18433;SDS011;9344;52.294;13.626;2022-07-25T05:29:20;1.83;;;0.90;;
18433;SDS011;9344;52.294;13.626;2022-07-25T05:31:46;1.30;;;1.00;;
18433;SDS011;9344;52.294;13.626;2022-07-25T05:34:13;1.45;;;1.05;;
18433;SDS011;9344;52.294;13.626;2022-07-25T05:36:40;1.92;;;1.08;;
18433;SDS011;9344;52.294;13.626;2022-07-25T05:39:07;1.40;;;1.10;;
18433;SDS011;9344;52.294;13.626;2022-07-25T05:41:34;1.85;;;1.17;;
18433;SDS011;9344;52.294;13.626;2022-07-25T05:44:00;2.05;;;0.95;;
18433;SDS011;9344;52.294;13.626;2022-07-25T05:46:27;1.45;;;1.02;;
18433;SDS011;9344;52.294;13.626;2022-07-25T05:48:53;1.60;;;1.00;;
18433;SDS011;9344;52.294;13.626;2022-07-25T05:51:20;3.65;;;1.02;;
18433;SDS011;9344;52.294;13.626;2022-07-25T05:53:46;1.33;;;0.98;;
18433;SDS011;9344;52.294;13.626;2022-07-25T05:56:14;1.90;;;1.15;;
18433;SDS011;9344;52.294;13.626;2022-07-25T05:58:41;2.83;;;1.08;;
18433;SDS011;9344;52.294;13.626;2022-07-25T06:01:10;2.38;;;1.30;;
18433;SDS011;9344;52.294;13.626;2022-07-25T06:03:37;1.98;;;1.10;;
18433;SDS011;9344;52.294;13.626;2022-07-25T06:06:04;1.70;;;1.15;;
18433;SDS011;9344;52.294;13.626;2022-07-25T06:08:32;1.90;;;1.27;;
18433;SDS011;9344;52.294;13.626;2022-07-25T06:10:59;1.65;;;1.20;;
18433;SDS011;9344;52.294;13.626;2022-07-25T06:13:29;2.05;;;1.40;;
18433;SDS011;9344;52.294;13.626;2022-07-25T06:15:56;3.65;;;1.20;;
18433;SDS011;9344;52.294;13.626;2022-07-25T06:18:23;1.83;;;1.38;;
18433;SDS011;9344;52.294;13.626;2022-07-25T06:20:50;1.58;;;1.20;;
18433;SDS011;9344;52.294;13.626;2022-07-25T06:23:17;1.85;;;1.20;;
18433;SDS011;9344;52.294;13.626;2022-07-25T06:25:44;2.75;;;1.40;;
18433;SDS011;9344;52.294;13.626;2022-07-25T06:28:11;1.90;;;1.40;;
18433;SDS011;9344;52.294;13.626;2022-07-25T06:30:39;3.10;;;1.50;;
18433;SDS011;9344;52.294;13.626;2022-07-25T06:33:06;1.33;;;1.17;;
18433;SDS011;9344;52.294;13.626;2022-07-25T06:35:33;2.10;;;1.52;;
18433;SDS011;9344;52.294;13.626;2022-07-25T06:37:59;1.70;;;1.40;;
18433;SDS011;9344;52.294;13.626;2022-07-25T06:40:26;1.85;;;1.30;;
18433;SDS011;9344;52.294;13.626;2022-07-25T06:42:53;2.10;;;1.55;;
18433;SDS011;9344;52.294;13.626;2022-07-25T06:45:19;2.00;;;1.38;;
18433;SDS011;9344;52.294;13.626;2022-07-25T06:47:48;2.58;;;1.50;;
18433;SDS011;9344;52.294;13.626;2022-07-25T06:50:15;2.40;;;1.67;;
18433;SDS011;9344;52.294;13.626;2022-07-25T06:52:43;1.98;;;1.50;;
18433;SDS011;9344;52.294;13.626;2022-07-25T06:55:11;3.92;;;1.80;;
18433;SDS011;9344;52.294;13.626;2022-07-25T06:57:39;3.10;;;1.58;;
18433;SDS011;9344;52.294;13.626;2022-07-25T07:00:07;3.08;;;1.70;;
18433;SDS011;9344;52.294;13.626;2022-07-25T07:02:45;3.35;;;1.50;;
18433;SDS011;9344;52.294;13.626;2022-07-25T07:05:14;2.08;;;1.75;;
18433;SDS011;9344;52.294;13.626;2022-07-25T07:07:41;1.98;;;1.60;;
18433;SDS011;9344;52.294;13.626;2022-07-25T07:10:08;1.88;;;1.45;;
18433;SDS011;9344;52.294;13.626;2022-07-25T07:12:34;1.83;;;1.40;;
18433;SDS011;9344;52.294;13.626;2022-07-25T07:15:01;2.40;;;1.65;;
18433;SDS011;9344;52.294;13.626;2022-07-25T07:17:28;1.90;;;1.60;;
18433;SDS011;9344;52.294;13.626;2022-07-25T07:19:55;1.92;;;1.35;;
18433;SDS011;9344;52.294;13.626;2022-07-25T07:22:22;1.90;;;1.50;;
18433;SDS011;9344;52.294;13.626;2022-07-25T07:24:49;3.22;;;2.10;;
18433;SDS011;9344;52.294;13.626;2022-07-25T07:27:15;3.47;;;1.33;;
18433;SDS011;9344;52.294;13.626;2022-07-25T07:29:42;2.25;;;1.58;;
18433;SDS011;9344;52.294;13.626;2022-07-25T07:32:08;2.20;;;1.60;;
18433;SDS011;9344;52.294;13.626;2022-07-25T07:34:35;3.33;;;1.60;;
18433;SDS011;9344;52.294;13.626;2022-07-25T07:37:03;2.20;;;1.50;;
18433;SDS011;9344;52.294;13.626;2022-07-25T07:39:29;1.90;;;1.40;;
18433;SDS011;9344;52.294;13.626;2022-07-25T07:41:56;2.40;;;1.70;;
18433;SDS011;9344;52.294;13.626;2022-07-25T07:44:22;2.13;;;1.63;;
18433;SDS011;9344;52.294;13.626;2022-07-25T07:46:49;1.75;;;1.52;;
18433;SDS011;9344;52.294;13.626;2022-07-25T07:49:15;1.70;;;1.50;;
18433;SDS011;9344;52.294;13.626;2022-07-25T07:51:42;3.50;;;1.83;;
18433;SDS011;9344;52.294;13.626;2022-07-25T07:54:09;2.58;;;1.90;;
18433;SDS011;9344;52.294;13.626;2022-07-25T07:56:53;2.83;;;1.65;;
18433;SDS011;9344;52.294;13.626;2022-07-25T07:59:20;2.67;;;1.67;;
18433;SDS011;9344;52.294;13.626;2022-07-25T08:01:47;2.42;;;1.60;;
18433;SDS011;9344;52.294;13.626;2022-07-25T08:04:13;2.83;;;1.80;;
18433;SDS011;9344;52.294;13.626;2022-07-25T08:06:40;2.30;;;1.90;;
18433;SDS011;9344;52.294;13.626;2022-07-25T08:09:07;3.28;;;1.95;;
18433;SDS011;9344;52.294;13.626;2022-07-25T08:11:35;2.10;;;1.60;;
18433;SDS011;9344;52.294;13.626;2022-07-25T08:14:01;3.00;;;2.00;;
18433;SDS011;9344;52.294;13.626;2022-07-25T08:16:29;3.03;;;1.60;;
18433;SDS011;9344;52.294;13.626;2022-07-25T08:18:55;2.60;;;2.03;;
18433;SDS011;9344;52.294;13.626;2022-07-25T08:21:22;2.60;;;1.90;;
18433;SDS011;9344;52.294;13.626;2022-07-25T08:23:48;3.47;;;2.00;;
18433;SDS011;9344;52.294;13.626;2022-07-25T08:26:15;2.72;;;2.10;;
18433;SDS011;9344;52.294;13.626;2022-07-25T08:28:43;3.20;;;2.08;;
18433;SDS011;9344;52.294;13.626;2022-07-25T08:31:09;2.88;;;2.10;;
18433;SDS011;9344;52.294;13.626;2022-07-25T08:33:36;2.97;;;2.00;;
18433;SDS011;9344;52.294;13.626;2022-07-25T08:36:02;3.90;;;2.10;;
18433;SDS011;9344;52.294;13.626;2022-07-25T08:38:29;2.92;;;2.20;;
18433;SDS011;9344;52.294;13.626;2022-07-25T08:40:56;2.50;;;2.10;;
18433;SDS011;9344;52.294;13.626;2022-07-25T08:43:23;2.60;;;2.20;;
18433;SDS011;9344;52.294;13.626;2022-07-25T08:45:52;2.67;;;2.20;;
18433;SDS011;9344;52.294;13.626;2022-07-25T08:48:20;2.53;;;2.20;;
18433;SDS011;9344;52.294;13.626;2022-07-25T08:50:49;3.55;;;2.20;;
18433;SDS011;9344;52.294;13.626;2022-07-25T08:53:17;2.72;;;2.17;;
18433;SDS011;9344;52.294;13.626;2022-07-25T08:55:45;2.72;;;2.00;;
18433;SDS011;9344;52.294;13.626;2022-07-25T08:58:13;3.47;;;2.30;;
18433;SDS011;9344;52.294;13.626;2022-07-25T09:00:41;2.88;;;2.28;;
18433;SDS011;9344;52.294;13.626;2022-07-25T09:03:09;2.63;;;2.15;;
18433;SDS011;9344;52.294;13.626;2022-07-25T09:05:37;4.00;;;2.50;;
18433;SDS011;9344;52.294;13.626;2022-07-25T09:08:08;3.60;;;2.05;;
18433;SDS011;9344;52.294;13.626;2022-07-25T09:10:35;4.35;;;2.20;;
18433;SDS011;9344;52.294;13.626;2022-07-25T09:13:04;2.63;;;2.30;;
18433;SDS011;9344;52.294;13.626;2022-07-25T09:15:35;3.30;;;2.40;;
18433;SDS011;9344;52.294;13.626;2022-07-25T09:18:04;2.92;;;2.40;;
18433;SDS011;9344;52.294;13.626;2022-07-25T09:20:37;3.00;;;2.50;;
18433;SDS011;9344;52.294;13.626;2022-07-25T09:23:05;3.25;;;2.60;;
18433;SDS011;9344;52.294;13.626;2022-07-25T09:25:32;2.97;;;2.25;;
18433;SDS011;9344;52.294;13.626;2022-07-25T09:28:08;3.63;;;2.50;;
18433;SDS011;9344;52.294;13.626;2022-07-25T09:30:36;3.25;;;2.58;;
18433;SDS011;9344;52.294;13.626;2022-07-25T09:33:03;3.58;;;2.50;;
18433;SDS011;9344;52.294;13.626;2022-07-25T09:35:29;4.57;;;2.60;;
18433;SDS011;9344;52.294;13.626;2022-07-25T09:38:06;3.10;;;2.78;;
18433;SDS011;9344;52.294;13.626;2022-07-25T09:40:37;3.53;;;3.05;;
18433;SDS011;9344;52.294;13.626;2022-07-25T09:43:04;3.67;;;2.90;;
18433;SDS011;9344;52.294;13.626;2022-07-25T09:45:30;5.13;;;3.00;;
18433;SDS011;9344;52.294;13.626;2022-07-25T09:47:58;4.75;;;3.15;;
18433;SDS011;9344;52.294;13.626;2022-07-25T09:50:26;4.10;;;2.85;;
18433;SDS011;9344;52.294;13.626;2022-07-25T09:52:57;5.20;;;3.03;;
18433;SDS011;9344;52.294;13.626;2022-07-25T09:55:27;4.50;;;3.17;;
18433;SDS011;9344;52.294;13.626;2022-07-25T09:57:54;4.57;;;3.33;;
18433;SDS011;9344;52.294;13.626;2022-07-25T10:00:22;5.40;;;3.50;;
18433;SDS011;9344;52.294;13.626;2022-07-25T10:02:51;5.78;;;3.42;;
18433;SDS011;9344;52.294;13.626;2022-07-25T10:05:33;4.55;;;3.00;;
18433;SDS011;9344;52.294;13.626;2022-07-25T10:08:10;4.75;;;3.45;;
18433;SDS011;9344;52.294;13.626;2022-07-25T10:10:39;5.43;;;3.80;;
18433;SDS011;9344;52.294;13.626;2022-07-25T10:13:07;5.25;;;3.72;;
18433;SDS011;9344;52.294;13.626;2022-07-25T10:15:42;5.50;;;3.58;;
18433;SDS011;9344;52.294;13.626;2022-07-25T10:18:11;6.85;;;3.60;;
18433;SDS011;9344;52.294;13.626;2022-07-25T10:20:38;5.93;;;3.78;;
18433;SDS011;9344;52.294;13.626;2022-07-25T10:23:15;4.82;;;3.45;;
18433;SDS011;9344;52.294;13.626;2022-07-25T10:25:44;7.03;;;3.88;;
18433;SDS011;9344;52.294;13.626;2022-07-25T10:28:14;7.35;;;3.72;;
18433;SDS011;9344;52.294;13.626;2022-07-25T10:30:44;8.63;;;3.60;;
18433;SDS011;9344;52.294;13.626;2022-07-25T10:33:10;6.88;;;3.78;;
18433;SDS011;9344;52.294;13.626;2022-07-25T10:35:38;6.28;;;3.55;;
18433;SDS011;9344;52.294;13.626;2022-07-25T10:38:05;5.95;;;3.70;;
18433;SDS011;9344;52.294;13.626;2022-07-25T10:40:34;5.45;;;3.63;;
18433;SDS011;9344;52.294;13.626;2022-07-25T10:43:07;6.13;;;3.63;;
18433;SDS011;9344;52.294;13.626;2022-07-25T10:45:36;6.53;;;3.90;;
18433;SDS011;9344;52.294;13.626;2022-07-25T10:48:08;5.97;;;3.60;;
18433;SDS011;9344;52.294;13.626;2022-07-25T10:50:46;6.63;;;3.63;;
18433;SDS011;9344;52.294;13.626;2022-07-25T10:53:14;5.10;;;3.42;;
18433;SDS011;9344;52.294;13.626;2022-07-25T10:55:41;6.28;;;3.65;;
18433;SDS011;9344;52.294;13.626;2022-07-25T10:58:13;6.68;;;4.05;;
18433;SDS011;9344;52.294;13.626;2022-07-25T11:00:41;7.55;;;3.97;;
18433;SDS011;9344;52.294;13.626;2022-07-25T11:03:09;5.72;;;3.97;;
18433;SDS011;9344;52.294;13.626;2022-07-25T11:05:43;4.80;;;3.60;;
18433;SDS011;9344;52.294;13.626;2022-07-25T11:08:10;6.38;;;4.07;;
18433;SDS011;9344;52.294;13.626;2022-07-25T11:10:37;6.18;;;3.90;;
18433;SDS011;9344;52.294;13.626;2022-07-25T11:13:04;7.85;;;3.97;;
18433;SDS011;9344;52.294;13.626;2022-07-25T11:15:35;6.30;;;4.05;;
18433;SDS011;9344;52.294;13.626;2022-07-25T11:18:02;6.07;;;3.97;;
18433;SDS011;9344;52.294;13.626;2022-07-25T11:20:28;6.20;;;3.90;;
18433;SDS011;9344;52.294;13.626;2022-07-25T11:22:55;6.28;;;3.80;;
18433;SDS011;9344;52.294;13.626;2022-07-25T11:25:21;6.85;;;4.00;;
18433;SDS011;9344;52.294;13.626;2022-07-25T11:27:49;5.93;;;3.78;;
18433;SDS011;9344;52.294;13.626;2022-07-25T11:30:21;8.13;;;4.00;;
18433;SDS011;9344;52.294;13.626;2022-07-25T11:32:50;6.63;;;4.20;;
18433;SDS011;9344;52.294;13.626;2022-07-25T11:35:19;7.63;;;3.72;;
18433;SDS011;9344;52.294;13.626;2022-07-25T11:37:47;9.13;;;3.70;;
18433;SDS011;9344;52.294;13.626;2022-07-25T11:40:15;5.60;;;3.47;;
18433;SDS011;9344;52.294;13.626;2022-07-25T11:42:43;6.15;;;3.63;;
18433;SDS011;9344;52.294;13.626;2022-07-25T11:45:18;6.05;;;3.63;;
18433;SDS011;9344;52.294;13.626;2022-07-25T11:47:46;5.70;;;3.80;;
18433;SDS011;9344;52.294;13.626;2022-07-25T11:50:15;6.68;;;3.78;;
18433;SDS011;9344;52.294;13.626;2022-07-25T11:52:42;4.93;;;3.40;;
18433;SDS011;9344;52.294;13.626;2022-07-25T11:55:10;6.07;;;3.85;;
18433;SDS011;9344;52.294;13.626;2022-07-25T11:57:39;8.73;;;3.72;;
18433;SDS011;9344;52.294;13.626;2022-07-25T12:00:09;5.68;;;3.53;;
18433;SDS011;9344;52.294;13.626;2022-07-25T12:02:42;7.30;;;3.80;;
18433;SDS011;9344;52.294;13.626;2022-07-25T12:05:09;5.22;;;3.40;;
18433;SDS011;9344;52.294;13.626;2022-07-25T12:07:40;5.05;;;3.40;;
18433;SDS011;9344;52.294;13.626;2022-07-25T12:10:10;6.15;;;3.70;;
18433;SDS011;9344;52.294;13.626;2022-07-25T12:12:40;5.68;;;3.60;;
18433;SDS011;9344;52.294;13.626;2022-07-25T12:15:12;6.20;;;3.40;;
18433;SDS011;9344;52.294;13.626;2022-07-25T12:17:40;6.03;;;3.42;;
18433;SDS011;9344;52.294;13.626;2022-07-25T12:20:09;4.55;;;3.33;;
18433;SDS011;9344;52.294;13.626;2022-07-25T12:22:40;5.78;;;3.38;;
18433;SDS011;9344;52.294;13.626;2022-07-25T12:25:07;5.15;;;3.63;;
18433;SDS011;9344;52.294;13.626;2022-07-25T12:27:34;6.43;;;3.83;;
18433;SDS011;9344;52.294;13.626;2022-07-25T12:30:02;5.22;;;3.25;;
18433;SDS011;9344;52.294;13.626;2022-07-25T12:32:29;5.15;;;3.30;;
18433;SDS011;9344;52.294;13.626;2022-07-25T12:34:55;5.22;;;3.38;;
18433;SDS011;9344;52.294;13.626;2022-07-25T12:37:22;4.93;;;3.42;;
18433;SDS011;9344;52.294;13.626;2022-07-25T12:39:52;6.03;;;3.67;;
18433;SDS011;9344;52.294;13.626;2022-07-25T12:42:19;5.07;;;3.25;;
18433;SDS011;9344;52.294;13.626;2022-07-25T12:44:45;6.22;;;3.30;;
18433;SDS011;9344;52.294;13.626;2022-07-25T12:47:12;4.85;;;3.38;;
18433;SDS011;9344;52.294;13.626;2022-07-25T12:49:39;5.75;;;3.55;;
18433;SDS011;9344;52.294;13.626;2022-07-25T12:52:05;6.07;;;3.53;;
18433;SDS011;9344;52.294;13.626;2022-07-25T12:54:32;4.95;;;3.22;;
18433;SDS011;9344;52.294;13.626;2022-07-25T12:57:00;5.50;;;3.55;;
18433;SDS011;9344;52.294;13.626;2022-07-25T12:59:27;5.43;;;3.50;;
18433;SDS011;9344;52.294;13.626;2022-07-25T13:01:53;5.25;;;3.40;;
18433;SDS011;9344;52.294;13.626;2022-07-25T13:04:20;5.35;;;3.40;;
18433;SDS011;9344;52.294;13.626;2022-07-25T13:06:46;7.22;;;3.25;;
18433;SDS011;9344;52.294;13.626;2022-07-25T13:09:13;5.45;;;3.38;;
18433;SDS011;9344;52.294;13.626;2022-07-25T13:11:39;5.15;;;3.38;;
18433;SDS011;9344;52.294;13.626;2022-07-25T13:14:07;5.22;;;3.25;;
18433;SDS011;9344;52.294;13.626;2022-07-25T13:16:34;8.45;;;3.65;;
18433;SDS011;9344;52.294;13.626;2022-07-25T13:19:01;4.43;;;3.20;;
18433;SDS011;9344;52.294;13.626;2022-07-25T13:21:28;5.05;;;3.38;;
18433;SDS011;9344;52.294;13.626;2022-07-25T13:23:55;6.90;;;3.42;;
18433;SDS011;9344;52.294;13.626;2022-07-25T13:26:22;4.95;;;3.38;;
18433;SDS011;9344;52.294;13.626;2022-07-25T13:28:48;4.55;;;3.05;;
18433;SDS011;9344;52.294;13.626;2022-07-25T13:31:17;5.38;;;3.38;;
18433;SDS011;9344;52.294;13.626;2022-07-25T13:33:43;5.72;;;3.20;;
18433;SDS011;9344;52.294;13.626;2022-07-25T13:36:10;5.38;;;3.00;;
18433;SDS011;9344;52.294;13.626;2022-07-25T13:38:37;4.75;;;3.33;;
18433;SDS011;9344;52.294;13.626;2022-07-25T13:41:05;6.13;;;3.42;;
18433;SDS011;9344;52.294;13.626;2022-07-25T13:43:32;6.80;;;3.15;;
18433;SDS011;9344;52.294;13.626;2022-07-25T13:45:58;4.78;;;3.05;;
18433;SDS011;9344;52.294;13.626;2022-07-25T13:48:27;5.80;;;3.42;;
18433;SDS011;9344;52.294;13.626;2022-07-25T13:50:54;4.35;;;2.88;;
18433;SDS011;9344;52.294;13.626;2022-07-25T13:53:20;4.68;;;3.20;;
18433;SDS011;9344;52.294;13.626;2022-07-25T13:55:47;6.10;;;3.50;;
18433;SDS011;9344;52.294;13.626;2022-07-25T13:58:14;5.22;;;3.08;;
18433;SDS011;9344;52.294;13.626;2022-07-25T14:00:40;5.22;;;3.50;;
18433;SDS011;9344;52.294;13.626;2022-07-25T14:03:07;5.35;;;3.13;;
18433;SDS011;9344;52.294;13.626;2022-07-25T14:05:36;5.15;;;3.08;;
18433;SDS011;9344;52.294;13.626;2022-07-25T14:08:04;5.82;;;3.42;;
18433;SDS011;9344;52.294;13.626;2022-07-25T14:10:31;5.10;;;3.10;;
18433;SDS011;9344;52.294;13.626;2022-07-25T14:12:57;4.63;;;3.35;;
18433;SDS011;9344;52.294;13.626;2022-07-25T14:15:24;7.90;;;3.13;;
18433;SDS011;9344;52.294;13.626;2022-07-25T14:17:51;6.13;;;3.13;;
18433;SDS011;9344;52.294;13.626;2022-07-25T14:20:17;5.90;;;3.17;;
18433;SDS011;9344;52.294;13.626;2022-07-25T14:22:45;5.60;;;3.35;;
18433;SDS011;9344;52.294;13.626;2022-07-25T14:25:12;7.18;;;3.20;;
18433;SDS011;9344;52.294;13.626;2022-07-25T14:27:38;5.38;;;3.25;;
18433;SDS011;9344;52.294;13.626;2022-07-25T14:30:06;6.53;;;2.90;;
18433;SDS011;9344;52.294;13.626;2022-07-25T14:32:33;6.05;;;2.97;;
18433;SDS011;9344;52.294;13.626;2022-07-25T14:35:00;5.70;;;3.40;;
18433;SDS011;9344;52.294;13.626;2022-07-25T14:37:27;5.18;;;3.45;;
18433;SDS011;9344;52.294;13.626;2022-07-25T14:39:56;5.03;;;3.10;;
18433;SDS011;9344;52.294;13.626;2022-07-25T14:42:23;5.18;;;3.03;;
18433;SDS011;9344;52.294;13.626;2022-07-25T14:44:49;5.40;;;3.22;;
18433;SDS011;9344;52.294;13.626;2022-07-25T14:47:16;6.38;;;3.65;;
18433;SDS011;9344;52.294;13.626;2022-07-25T14:49:42;4.68;;;3.08;;